Fortrose, United Kingdom
Current Conditions -  °F | °C
As of 11:20 AM on Tuesday 21 Oct 2014 (Local Time) from EGPE Reporting Station
Rain Showers Rain Showers  
Wind Chill: 36°   Ceiling: Unl
Heat Index: 45°   Visibility: 6mi
Dew Point: 41°   Wind: 22mph
Humidity: 87%   Direction: 280°W
Pressure: 29.29"   Gusts: NA
Location:  57.58°N, 4.13°W
Report Text: EGPE 211020Z 28019KT 9999 -SHRA FEW005 SCT028 07/05 Q0992
Loading
Personal Weather Stations






























Interactive Weather Map
Tropical Storm Tracking
New forecast layout! Learn more

10-Day Weather Forecast

Advertisements
Track Severe Weather on mobile